Time;durP1;ratioP1;P1;durP2;ratioP2;P2;SDS_P1;SDS_P2;PMS_P1;PMS_P2;Temp;Humidity;BMP_temperature;BMP_pressure;BME280_temperature;BME280_humidity;BME280_pressure;Samples;Min_cycle;Max_cycle;Signal;HPM_P1;HPM_P2
2022/03/21 00:02:23;;;;;;;17.80;4.80;;;14.40;41.00;;;;;;6129016;28;20414;-67
2022/03/21 00:05:24;;;;;;;10.57;4.38;;;14.40;41.00;;;;;;6130560;28;20054;-66
2022/03/21 00:08:25;;;;;;;8.43;4.65;;;14.30;41.00;;;;;;6113299;28;20040;-67
2022/03/21 00:11:25;;;;;;;10.50;4.47;;;14.30;41.10;;;;;;6113402;28;20042;-69
2022/03/21 00:14:27;;;;;;;12.35;4.53;;;14.30;41.20;;;;;;6113643;28;20040;-67
2022/03/21 00:17:28;;;;;;;17.27;4.82;;;14.20;41.40;;;;;;6128894;28;20094;-67
2022/03/21 00:20:31;;;;;;;10.02;4.38;;;14.20;41.50;;;;;;6129900;28;20508;-67
2022/03/21 00:23:32;;;;;;;8.27;4.57;;;14.10;41.80;;;;;;6129720;28;20036;-66
2022/03/21 00:26:34;;;;;;;10.38;4.88;;;14.00;41.90;;;;;;6129234;28;20492;-67
2022/03/21 00:29:38;;;;;;;11.23;4.65;;;14.00;42.00;;;;;;6128704;28;20052;-67
2022/03/21 00:32:39;;;;;;;12.25;5.43;;;13.90;42.10;;;;;;6129050;28;20040;-69
2022/03/21 00:35:43;;;;;;;11.77;4.53;;;13.90;42.00;;;;;;6124379;28;20373;-69
2022/03/21 00:38:44;;;;;;;13.93;5.35;;;13.90;42.10;;;;;;6128380;28;20042;-68
2022/03/21 00:41:44;;;;;;;16.60;5.13;;;13.90;42.00;;;;;;6129641;28;20043;-70
2022/03/21 00:44:45;;;;;;;16.58;4.72;;;13.80;42.00;;;;;;6128520;28;20040;-68
2022/03/21 00:47:48;;;;;;;8.57;4.35;;;13.80;42.00;;;;;;6122701;28;20059;-69
2022/03/21 00:50:49;;;;;;;16.13;5.07;;;13.80;42.00;;;;;;6128129;28;20046;-69
2022/03/21 00:53:50;;;;;;;19.20;5.00;;;13.80;42.00;;;;;;6129298;28;20062;-67
2022/03/21 00:56:51;;;;;;;8.27;4.07;;;13.80;42.00;;;;;;6128160;28;20127;-68
2022/03/21 00:59:52;;;;;;;10.77;4.95;;;13.80;42.00;;;;;;6128937;28;20035;-68
2022/03/21 01:02:54;;;;;;;9.00;4.35;;;13.80;42.20;;;;;;6127437;28;20036;-67
2022/03/21 01:05:55;;;;;;;12.95;4.90;;;13.80;42.20;;;;;;6123498;28;20047;-69
2022/03/21 01:08:56;;;;;;;13.02;5.00;;;13.80;42.20;;;;;;6128685;28;20035;-68
2022/03/21 01:11:57;;;;;;;10.52;4.78;;;13.80;42.20;;;;;;6112830;28;20028;-69
2022/03/21 01:14:59;;;;;;;11.05;4.88;;;13.80;42.30;;;;;;6127799;28;20047;-67
2022/03/21 01:18:00;;;;;;;12.05;5.95;;;13.80;42.30;;;;;;6127899;28;20027;-67
2022/03/21 01:21:01;;;;;;;14.48;5.43;;;13.80;42.50;;;;;;6128619;28;20047;-67
2022/03/21 01:24:02;;;;;;;15.98;5.03;;;13.80;42.80;;;;;;6127821;28;20032;-67
2022/03/21 01:27:04;;;;;;;15.65;6.30;;;13.70;42.70;;;;;;6127666;28;20035;-69
2022/03/21 01:30:08;;;;;;;11.52;5.63;;;13.70;42.70;;;;;;6127563;28;20098;-67
2022/03/21 01:33:09;;;;;;;12.38;5.90;;;13.70;42.90;;;;;;6126583;28;20042;-69
2022/03/21 01:36:10;;;;;;;13.75;5.82;;;13.70;43.10;;;;;;6127446;28;20091;-67
2022/03/21 01:39:10;;;;;;;12.02;5.30;;;13.60;43.10;;;;;;6127571;28;20426;-68
2022/03/21 01:42:11;;;;;;;21.30;6.63;;;13.60;43.20;;;;;;6126519;28;20106;-68
2022/03/21 01:45:12;;;;;;;19.20;5.47;;;13.60;43.40;;;;;;6125174;28;20050;-69
2022/03/21 01:48:13;;;;;;;13.90;5.47;;;13.60;43.70;;;;;;6125945;28;20381;-67
2022/03/21 01:51:15;;;;;;;15.77;6.35;;;13.60;43.80;;;;;;6127262;28;20039;-68
2022/03/21 01:57:35;;;;;;;15.98;7.07;;;13.50;44.20;;;;;;6128008;28;20127;-67
2022/03/21 02:00:36;;;;;;;14.55;6.28;;;13.50;44.30;;;;;;6127564;28;20373;-68
2022/03/21 02:03:37;;;;;;;12.52;6.95;;;13.50;44.40;;;;;;6127524;28;20040;-68
2022/03/21 02:06:38;;;;;;;13.85;6.55;;;13.50;44.50;;;;;;6126940;29;20167;-67
2022/03/21 02:09:41;;;;;;;12.40;5.90;;;13.50;44.60;;;;;;6126728;29;20098;-67
2022/03/21 02:12:42;;;;;;;15.13;6.85;;;13.50;44.70;;;;;;6111162;29;20071;-66
2022/03/21 02:15:43;;;;;;;11.13;5.85;;;13.40;44.70;;;;;;6122934;28;20055;-67
2022/03/21 02:18:45;;;;;;;14.20;6.22;;;13.40;44.80;;;;;;6128069;28;20036;-67
2022/03/21 02:22:26;;;;;;;11.40;6.15;;;13.40;44.90;;;;;;6133808;28;20461;-68
2022/03/21 02:25:36;;;;;;;11.32;5.63;;;13.40;45.20;;;;;;6123476;28;20036;-68
2022/03/21 02:28:39;;;;;;;12.50;6.65;;;13.40;45.30;;;;;;6118691;28;20525;-67
2022/03/21 02:31:40;;;;;;;18.33;6.45;;;13.40;45.50;;;;;;6122571;28;20051;-67
2022/03/21 02:34:41;;;;;;;9.32;5.00;;;13.30;45.60;;;;;;6124645;28;20517;-67
2022/03/21 02:37:45;;;;;;;11.65;5.07;;;13.30;45.60;;;;;;6123010;28;20059;-67
2022/03/21 02:40:49;;;;;;;12.13;5.43;;;13.20;45.70;;;;;;6124244;28;20353;-68
2022/03/21 02:43:51;;;;;;;12.23;5.53;;;13.20;45.80;;;;;;6124763;28;20054;-67
2022/03/21 02:46:56;;;;;;;11.52;5.70;;;13.20;45.80;;;;;;6122496;28;20509;-66
2022/03/21 02:49:59;;;;;;;15.73;5.63;;;13.10;45.70;;;;;;6122171;28;20122;-67
2022/03/21 02:53:01;;;;;;;13.18;5.40;;;13.20;45.80;;;;;;6124419;28;20035;-67
2022/03/21 02:56:02;;;;;;;15.05;5.40;;;13.20;46.00;;;;;;6124287;28;20110;-67
2022/03/21 02:59:03;;;;;;;10.38;5.07;;;13.20;46.10;;;;;;6128673;28;20063;-67
2022/03/21 03:02:05;;;;;;;13.82;6.10;;;13.10;46.30;;;;;;6128148;28;20429;-67
2022/03/21 03:05:07;;;;;;;12.13;5.57;;;13.00;46.50;;;;;;6133029;28;20044;-67
2022/03/21 03:08:08;;;;;;;10.88;4.93;;;13.00;46.70;;;;;;6112444;28;20040;-68
2022/03/21 03:11:10;;;;;;;16.23;5.60;;;12.90;46.70;;;;;;6129289;28;20056;-67
2022/03/21 03:14:11;;;;;;;14.40;5.20;;;12.90;46.80;;;;;;6129834;28;20039;-67
2022/03/21 03:17:12;;;;;;;29.23;5.80;;;12.90;46.70;;;;;;6128675;28;20036;-67
2022/03/21 03:20:13;;;;;;;9.88;5.35;;;12.80;46.60;;;;;;6129311;28;20047;-67
2022/03/21 03:23:14;;;;;;;14.68;5.43;;;12.90;46.70;;;;;;6128230;28;20051;-69
2022/03/21 03:26:14;;;;;;;10.15;5.13;;;12.90;46.60;;;;;;6128136;28;20058;-68
2022/03/21 03:29:17;;;;;;;11.48;5.57;;;12.80;46.60;;;;;;6110623;28;20391;-67
2022/03/21 03:32:18;;;;;;;10.10;4.88;;;12.80;46.60;;;;;;6126564;28;20074;-67
2022/03/21 03:35:19;;;;;;;10.75;5.68;;;12.80;46.60;;;;;;6128504;28;20473;-68
2022/03/21 03:38:20;;;;;;;11.73;5.47;;;12.80;46.70;;;;;;6112007;28;20453;-67
2022/03/21 03:41:21;;;;;;;10.63;5.40;;;12.80;46.60;;;;;;6128613;28;20040;-67
2022/03/21 03:44:24;;;;;;;11.77;5.22;;;12.80;46.60;;;;;;6128556;28;20154;-69
2022/03/21 03:47:25;;;;;;;8.35;4.60;;;12.80;46.70;;;;;;6111648;28;20358;-68
2022/03/21 03:50:26;;;;;;;12.05;5.95;;;12.80;46.80;;;;;;6127237;28;20063;-69
2022/03/21 03:53:26;;;;;;;13.85;5.95;;;12.80;46.80;;;;;;6127581;28;20046;-68
2022/03/21 03:56:27;;;;;;;14.50;5.63;;;12.70;46.90;;;;;;6127197;28;20044;-68
2022/03/21 03:59:28;;;;;;;11.55;5.90;;;12.70;47.00;;;;;;6132749;28;20062;-67
2022/03/21 04:02:29;;;;;;;12.90;5.57;;;12.70;47.00;;;;;;6126959;28;20039;-67
2022/03/21 04:05:30;;;;;;;13.20;5.40;;;12.60;47.10;;;;;;6126945;28;20047;-67
2022/03/21 04:08:31;;;;;;;15.60;5.13;;;12.50;47.10;;;;;;6128183;28;20032;-68
2022/03/21 04:11:32;;;;;;;12.52;5.03;;;12.50;47.20;;;;;;6128495;28;20066;-68
2022/03/21 04:14:33;;;;;;;20.02;6.22;;;12.50;47.20;;;;;;6128023;28;20421;-68
2022/03/21 04:17:37;;;;;;;11.95;5.35;;;12.50;47.20;;;;;;6126349;28;20032;-68
2022/03/21 04:20:39;;;;;;;11.85;5.45;;;12.50;47.20;;;;;;6126938;28;20091;-68
2022/03/21 04:23:40;;;;;;;13.10;5.72;;;12.40;47.10;;;;;;6127050;28;20102;-67
2022/03/21 04:26:41;;;;;;;15.63;6.45;;;12.40;47.20;;;;;;6126586;28;20044;-68
2022/03/21 04:29:41;;;;;;;14.30;6.05;;;12.40;47.40;;;;;;6108046;29;20055;-67
2022/03/21 04:32:44;;;;;;;13.90;5.97;;;12.40;47.50;;;;;;6125917;28;20032;-67
2022/03/21 04:35:45;;;;;;;14.07;5.45;;;12.40;47.50;;;;;;6123736;28;20520;-68
2022/03/21 04:38:46;;;;;;;12.60;5.70;;;12.40;47.60;;;;;;6127731;28;20140;-68
2022/03/21 04:41:47;;;;;;;17.45;6.35;;;12.40;47.70;;;;;;6127745;28;20062;-67
2022/03/21 04:44:50;;;;;;;10.73;4.93;;;12.40;47.70;;;;;;6111533;28;20036;-67
2022/03/21 04:47:51;;;;;;;13.05;6.00;;;12.40;47.80;;;;;;6125950;28;20083;-67
2022/03/21 04:50:53;;;;;;;17.00;6.25;;;12.40;47.90;;;;;;6128332;28;20079;-68
2022/03/21 04:53:54;;;;;;;13.93;5.65;;;12.40;47.90;;;;;;6128365;28;20035;-68
2022/03/21 04:56:55;;;;;;;13.48;6.07;;;12.40;47.80;;;;;;6127087;28;20465;-68
2022/03/21 04:59:56;;;;;;;12.95;6.20;;;12.40;48.00;;;;;;6128436;28;20812;-68
2022/03/21 05:02:57;;;;;;;14.20;6.65;;;12.30;48.20;;;;;;6126458;28;20065;-68
2022/03/21 05:05:58;;;;;;;17.80;6.90;;;12.30;48.40;;;;;;6128155;28;20068;-68
2022/03/21 05:09:03;;;;;;;12.30;5.68;;;12.30;48.50;;;;;;6127097;28;20035;-68
2022/03/21 05:12:04;;;;;;;11.13;5.68;;;12.30;48.60;;;;;;6128503;29;20036;-68
2022/03/21 05:15:07;;;;;;;14.05;6.47;;;12.20;48.80;;;;;;6128131;28;20042;-66
2022/03/21 05:18:08;;;;;;;12.40;5.15;;;12.20;49.00;;;;;;6127908;28;20087;-67
2022/03/21 05:21:08;;;;;;;11.13;5.28;;;12.10;48.90;;;;;;6128208;28;20059;-66
2022/03/21 05:30:58;;;;;;;14.48;6.25;;;12.00;49.50;;;;;;6127170;28;20046;-67
2022/03/21 05:37:18;;;;;;;20.83;6.55;;;11.90;49.90;;;;;;6126007;28;20424;-67
2022/03/21 05:40:31;;;;;;;12.48;5.05;;;11.90;50.00;;;;;;6126423;28;20042;-67
2022/03/21 05:43:34;;;;;;;12.95;6.30;;;11.90;50.10;;;;;;6126138;28;20193;-67
2022/03/21 05:46:35;;;;;;;13.55;5.13;;;11.90;50.10;;;;;;6106961;28;20389;-67
2022/03/21 05:49:35;;;;;;;12.65;4.85;;;11.80;50.10;;;;;;6110146;28;20059;-67
2022/03/21 05:52:37;;;;;;;12.43;5.63;;;11.90;50.20;;;;;;6123586;28;20513;-68
2022/03/21 05:55:38;;;;;;;16.95;5.40;;;11.90;50.80;;;;;;6127364;28;20035;-69
2022/03/21 05:58:39;;;;;;;14.27;5.75;;;11.90;50.00;;;;;;6124958;28;20084;-69
2022/03/21 06:01:40;;;;;;;15.60;6.75;;;11.90;50.00;;;;;;6125746;28;20115;-69
2022/03/21 06:04:41;;;;;;;18.08;6.28;;;11.90;49.90;;;;;;6126620;28;20046;-68
2022/03/21 06:07:42;;;;;;;12.20;5.60;;;11.90;49.90;;;;;;6125532;28;20132;-69
2022/03/21 06:19:09;;;;;;;13.50;5.65;;;11.80;49.90;;;;;;6121057;28;19923;-66
2022/03/21 06:22:10;;;;;;;14.57;5.72;;;11.80;50.00;;;;;;6122809;28;20111;-69
2022/03/21 06:25:11;;;;;;;12.48;5.00;;;11.80;50.00;;;;;;6122768;28;20051;-68
2022/03/21 06:28:12;;;;;;;11.30;5.45;;;11.90;50.00;;;;;;6122220;28;20482;-66
2022/03/21 06:31:14;;;;;;;16.48;5.80;;;11.80;49.90;;;;;;6107185;28;20036;-69
2022/03/21 06:34:15;;;;;;;14.18;6.32;;;12.00;49.90;;;;;;6126155;28;20040;-68
2022/03/21 06:37:16;;;;;;;18.23;5.03;;;12.00;49.80;;;;;;6129113;28;20039;-67
2022/03/21 06:40:17;;;;;;;15.63;5.68;;;12.00;49.70;;;;;;6129051;28;20513;-67
2022/03/21 06:43:20;;;;;;;14.05;6.20;;;12.00;49.60;;;;;;6124101;28;20118;-68
2022/03/21 06:46:21;;;;;;;11.05;4.82;;;12.00;49.60;;;;;;6128609;28;20083;-69
2022/03/21 06:49:27;;;;;;;14.82;5.40;;;12.00;49.60;;;;;;6127459;28;20052;-68
2022/03/21 06:52:28;;;;;;;11.30;5.20;;;11.90;49.70;;;;;;6127184;28;20102;-68
2022/03/21 06:55:30;;;;;;;13.75;6.05;;;11.90;49.60;;;;;;6128690;28;20362;-69
2022/03/21 06:58:31;;;;;;;19.58;6.30;;;11.90;49.80;;;;;;6129545;28;20115;-69
2022/03/21 07:01:35;;;;;;;15.90;6.78;;;11.90;49.90;;;;;;6128789;28;20040;-68
2022/03/21 07:04:36;;;;;;;14.32;5.70;;;11.90;49.90;;;;;;6128310;28;20039;-68
2022/03/21 07:07:37;;;;;;;17.80;5.95;;;11.90;49.90;;;;;;6129329;28;20088;-68
2022/03/21 07:10:44;;;;;;;10.98;5.57;;;12.00;50.00;;;;;;6112097;28;20418;-67
2022/03/21 07:13:44;;;;;;;12.98;5.32;;;11.90;50.00;;;;;;6129063;28;20051;-68
2022/03/21 07:16:46;;;;;;;14.75;6.20;;;12.00;50.00;;;;;;6128754;28;20067;-67
2022/03/21 07:19:47;;;;;;;17.33;6.15;;;12.00;50.60;;;;;;6129362;28;20043;-68
2022/03/21 07:22:48;;;;;;;15.25;5.78;;;12.00;50.10;;;;;;6127965;28;20036;-68
2022/03/21 07:25:49;;;;;;;13.27;6.10;;;12.00;50.10;;;;;;6130482;28;20365;-68
2022/03/21 07:28:50;;;;;;;16.08;6.63;;;12.00;50.00;;;;;;6130080;28;20056;-69
2022/03/21 07:31:50;;;;;;;15.07;6.82;;;12.00;50.00;;;;;;6126419;28;20040;-68
2022/03/21 07:34:51;;;;;;;16.40;6.30;;;12.10;50.00;;;;;;6126263;28;20028;-68
2022/03/21 07:37:56;;;;;;;18.38;6.78;;;12.10;50.00;;;;;;6127565;28;20146;-67
2022/03/21 07:40:59;;;;;;;17.08;6.90;;;12.20;50.00;;;;;;6128135;28;20035;-67
2022/03/21 07:44:09;;;;;;;18.13;7.70;;;12.20;49.80;;;;;;6128416;28;20036;-69
2022/03/21 07:47:20;;;;;;;16.05;7.38;;;12.20;49.80;;;;;;6129173;28;20047;-68
2022/03/21 07:50:25;;;;;;;16.05;7.45;;;12.30;49.70;;;;;;6124294;28;20075;-68
2022/03/21 07:53:26;;;;;;;17.30;7.53;;;12.30;49.60;;;;;;6127800;28;20123;-69
2022/03/21 07:56:27;;;;;;;21.15;7.95;;;12.30;49.60;;;;;;6129106;28;20044;-67
2022/03/21 07:59:27;;;;;;;15.32;6.35;;;12.40;49.60;;;;;;6126162;28;21001;-69
2022/03/21 08:02:28;;;;;;;20.80;7.78;;;12.40;49.60;;;;;;6126018;28;20086;-68
2022/03/21 08:05:29;;;;;;;18.05;6.57;;;12.50;49.60;;;;;;6127199;28;20036;-68
2022/03/21 08:08:30;;;;;;;20.48;8.18;;;12.60;49.50;;;;;;6127903;28;20201;-69
2022/03/21 08:11:31;;;;;;;11.38;5.82;;;12.70;49.20;;;;;;6128010;28;20058;-67
2022/03/21 08:14:32;;;;;;;14.40;6.47;;;12.80;49.10;;;;;;6127807;28;20040;-68
2022/03/21 08:17:33;;;;;;;18.80;6.93;;;12.90;48.90;;;;;;6111141;28;20051;-68
2022/03/21 08:20:35;;;;;;;24.17;7.57;;;13.00;48.70;;;;;;6128529;28;20066;-68
2022/03/21 08:23:36;;;;;;;21.52;9.27;;;13.10;48.40;;;;;;6126377;28;20402;-68
2022/03/21 08:26:37;;;;;;;21.30;8.40;;;13.20;48.30;;;;;;6128028;28;20050;-68
2022/03/21 08:29:39;;;;;;;16.27;6.93;;;13.40;48.00;;;;;;6127416;28;20044;-69
2022/03/21 08:32:40;;;;;;;21.95;8.18;;;13.50;47.70;;;;;;6127933;28;20369;-68
2022/03/21 08:35:41;;;;;;;17.08;7.25;;;13.70;47.50;;;;;;6123896;28;20032;-68
2022/03/21 08:38:42;;;;;;;25.27;7.20;;;13.90;47.40;;;;;;6127477;28;20039;-68
2022/03/21 08:41:43;;;;;;;14.57;7.07;;;14.10;47.10;;;;;;6111211;28;20055;-68
2022/03/21 08:44:44;;;;;;;22.52;7.38;;;14.30;46.70;;;;;;6126873;28;20036;-68
2022/03/21 08:47:47;;;;;;;15.52;7.28;;;14.40;46.40;;;;;;6120859;28;20055;-68
2022/03/21 08:50:48;;;;;;;17.30;6.75;;;14.50;46.10;;;;;;6127835;28;20079;-67
2022/03/21 08:53:50;;;;;;;14.27;6.70;;;14.60;45.90;;;;;;6126737;28;20351;-68
2022/03/21 08:56:51;;;;;;;19.05;7.25;;;14.70;45.60;;;;;;6127066;28;20042;-69
2022/03/21 08:59:52;;;;;;;21.58;7.88;;;14.80;46.00;;;;;;6125696;28;20035;-67
2022/03/21 09:02:54;;;;;;;31.15;10.95;;;15.00;45.10;;;;;;6127177;28;20035;-67
2022/03/21 09:05:55;;;;;;;17.63;7.45;;;15.00;44.60;;;;;;6110334;28;20054;-67
2022/03/21 09:08:58;;;;;;;16.67;6.03;;;15.10;44.30;;;;;;6127537;28;20334;-68
2022/03/21 09:12:00;;;;;;;16.13;6.47;;;15.10;44.00;;;;;;6126190;28;20210;-68
2022/03/21 09:15:01;;;;;;;17.48;6.70;;;15.10;44.00;;;;;;6129944;28;20045;-68
2022/03/21 09:18:02;;;;;;;15.07;6.60;;;15.10;43.90;;;;;;6129148;28;20345;-68
2022/03/21 09:21:04;;;;;;;20.42;5.75;;;15.20;43.60;;;;;;6125962;28;20048;-68
2022/03/21 09:24:06;;;;;;;26.55;7.18;;;15.30;43.40;;;;;;6126218;28;20361;-69
2022/03/21 09:27:06;;;;;;;20.23;6.78;;;15.40;43.40;;;;;;6126712;28;20119;-69
2022/03/21 09:30:09;;;;;;;13.35;5.35;;;15.60;43.10;;;;;;6125980;28;20031;-67
2022/03/21 09:33:09;;;;;;;17.58;5.80;;;15.70;42.50;;;;;;6109519;28;20129;-67
2022/03/21 09:36:10;;;;;;;19.30;6.80;;;15.80;42.20;;;;;;6110069;28;20043;-67
2022/03/21 09:39:12;;;;;;;16.35;5.93;;;15.90;42.10;;;;;;6125279;28;20051;-67
2022/03/21 09:42:14;;;;;;;20.70;6.82;;;16.10;41.80;;;;;;6126720;28;20063;-67
2022/03/21 09:45:15;;;;;;;16.88;6.45;;;16.20;41.90;;;;;;6125120;28;20044;-67
2022/03/21 09:48:18;;;;;;;15.50;6.72;;;16.30;41.80;;;;;;6124277;28;20500;-67
2022/03/21 09:51:27;;;;;;;18.98;6.85;;;16.40;41.50;;;;;;6126601;28;20477;-67
2022/03/21 09:54:28;;;;;;;13.88;7.10;;;16.60;41.10;;;;;;6109272;28;20036;-67
2022/03/21 09:57:30;;;;;;;16.77;7.65;;;16.70;40.50;;;;;;6124190;28;20056;-67
2022/03/21 10:00:32;;;;;;;13.95;6.78;;;16.90;40.00;;;;;;6124690;28;20075;-67
2022/03/21 10:03:35;;;;;;;17.50;7.72;;;17.00;39.70;;;;;;6124447;28;20044;-67
2022/03/21 10:06:39;;;;;;;13.88;6.10;;;17.10;39.00;;;;;;6125040;28;20063;-66
2022/03/21 10:09:40;;;;;;;15.32;6.97;;;17.20;38.70;;;;;;6119782;28;20110;-67
2022/03/21 10:12:43;;;;;;;16.70;6.57;;;17.30;37.90;;;;;;6126149;28;20044;-67
2022/03/21 10:15:44;;;;;;;18.83;8.18;;;17.40;37.60;;;;;;6109051;29;20039;-68
2022/03/21 10:19:03;;;;;;;20.30;7.80;;;17.50;37.30;;;;;;6126318;28;20071;-67
2022/03/21 10:22:19;;;;;;;19.30;7.13;;;17.60;36.80;;;;;;6125359;28;20047;-68
2022/03/21 10:25:21;;;;;;;13.45;7.22;;;17.70;36.60;;;;;;6121175;28;20036;-67
2022/03/21 10:28:36;;;;;;;19.00;6.95;;;17.80;36.50;;;;;;6107729;28;20485;-68
2022/03/21 10:31:46;;;;;;;15.43;7.18;;;17.90;36.40;;;;;;6125467;28;20039;-67
2022/03/21 10:35:00;;;;;;;18.75;6.60;;;18.00;36.10;;;;;;6121757;28;20036;-68
2022/03/21 10:38:04;;;;;;;12.50;6.60;;;18.10;36.00;;;;;;6125944;28;20058;-68
2022/03/21 10:41:06;;;;;;;12.57;6.22;;;18.30;35.60;;;;;;6125968;28;20040;-68
2022/03/21 10:44:08;;;;;;;14.18;6.68;;;18.60;35.10;;;;;;6109184;28;20036;-67
2022/03/21 10:47:09;;;;;;;14.68;6.43;;;18.90;34.40;;;;;;6121847;28;20062;-69
2022/03/21 10:50:09;;;;;;;10.20;5.20;;;19.30;33.70;;;;;;6108756;28;20052;-67
2022/03/21 10:53:23;;;;;;;14.63;5.57;;;19.60;33.10;;;;;;6124809;28;20036;-69
2022/03/21 10:56:24;;;;;;;22.20;6.50;;;20.00;32.40;;;;;;6107253;28;20560;-68
2022/03/21 10:59:25;;;;;;;13.30;6.32;;;20.20;31.80;;;;;;6124713;28;20039;-68
2022/03/21 11:02:26;;;;;;;16.90;6.90;;;20.40;31.70;;;;;;6123995;28;20468;-69
2022/03/21 11:05:30;;;;;;;16.45;7.80;;;20.50;31.40;;;;;;6124325;28;20036;-70
2022/03/21 11:08:31;;;;;;;19.63;7.18;;;20.70;31.30;;;;;;6122918;28;20032;-68
2022/03/21 11:11:33;;;;;;;19.63;7.50;;;20.90;30.80;;;;;;6102054;28;20046;-68
2022/03/21 11:14:44;;;;;;;16.70;6.93;;;20.90;30.40;;;;;;6123403;28;20067;-69
2022/03/21 11:17:45;;;;;;;20.15;7.43;;;21.10;30.40;;;;;;6116233;28;20047;-71
2022/03/21 11:20:47;;;;;;;17.02;6.90;;;21.20;29.80;;;;;;6125909;28;20175;-69
2022/03/21 11:23:48;;;;;;;15.95;6.43;;;21.20;29.70;;;;;;6125959;28;20039;-68
2022/03/21 11:26:52;;;;;;;13.38;6.05;;;21.30;29.50;;;;;;6126151;28;20039;-68
2022/03/21 11:30:27;;;;;;;10.63;5.60;;;21.30;29.20;;;;;;6120447;28;20043;-70
2022/03/21 11:34:05;;;;;;;12.90;5.65;;;21.40;29.10;;;;;;6095005;28;20139;-70
2022/03/21 11:37:06;;;;;;;14.80;5.38;;;21.50;28.80;;;;;;6123507;28;20032;-69
2022/03/21 11:40:30;;;;;;;12.50;5.18;;;21.70;28.30;;;;;;6126078;28;20422;-68
2022/03/21 11:43:32;;;;;;;10.48;5.18;;;22.00;27.80;;;;;;6123193;28;20078;-69
2022/03/21 11:46:37;;;;;;;12.07;5.28;;;22.30;27.50;;;;;;6124805;28;20044;-68
2022/03/21 11:49:43;;;;;;;9.10;4.88;;;22.60;27.00;;;;;;6125527;28;20075;-67
2022/03/21 11:53:07;;;;;;;12.10;5.65;;;22.90;26.60;;;;;;6119553;28;20103;-68
2022/03/21 11:56:08;;;;;;;12.27;4.47;;;23.30;26.10;;;;;;6118125;28;20055;-68
2022/03/21 11:59:28;;;;;;;9.00;4.85;;;23.70;25.40;;;;;;6124684;28;20039;-68
2022/03/21 12:02:29;;;;;;;11.73;4.72;;;24.10;24.90;;;;;;6121044;28;20032;-68
2022/03/21 12:05:37;;;;;;;8.18;4.43;;;24.40;24.60;;;;;;6123405;28;20446;-68
2022/03/21 12:08:45;;;;;;;6.97;4.25;;;24.80;24.00;;;;;;6122749;28;20733;-68
2022/03/21 12:11:56;;;;;;;7.32;3.88;;;25.20;23.70;;;;;;6126300;28;20111;-68
2022/03/21 12:15:00;;;;;;;9.27;4.85;;;25.50;23.50;;;;;;6125581;28;20094;-68
2022/03/21 12:18:01;;;;;;;9.25;4.97;;;25.80;23.20;;;;;;6118374;28;20039;-68
2022/03/21 12:21:11;;;;;;;7.93;4.28;;;26.20;22.70;;;;;;6123890;28;20135;-71
2022/03/21 12:24:17;;;;;;;9.55;4.10;;;26.40;22.40;;;;;;6122891;28;20095;-67
2022/03/21 12:27:39;;;;;;;12.40;5.18;;;26.60;21.90;;;;;;6119488;28;20055;-70
2022/03/21 12:30:40;;;;;;;9.65;4.28;;;26.80;21.60;;;;;;6119100;28;20373;-68
2022/03/21 12:33:41;;;;;;;9.02;4.30;;;26.80;21.10;;;;;;6121020;28;20088;-69
2022/03/21 12:36:42;;;;;;;14.52;4.90;;;27.30;21.00;;;;;;6123743;28;20040;-67
2022/03/21 12:39:47;;;;;;;8.32;4.30;;;27.80;20.80;;;;;;6106975;28;20296;-68
2022/03/21 12:42:47;;;;;;;9.70;4.00;;;28.30;19.80;;;;;;6124091;28;20076;-69
2022/03/21 12:45:52;;;;;;;10.55;4.53;;;28.60;19.30;;;;;;6124564;28;20097;-68
2022/03/21 12:48:58;;;;;;;8.13;4.22;;;28.80;19.00;;;;;;6123972;28;20044;-68
2022/03/21 12:51:59;;;;;;;8.88;4.80;;;29.10;19.10;;;;;;6107184;28;20115;-69
2022/03/21 12:55:00;;;;;;;10.32;4.55;;;29.40;18.60;;;;;;6124252;28;20050;-69
2022/03/21 12:58:12;;;;;;;7.93;4.47;;;29.40;18.30;;;;;;6123459;28;20031;-68
2022/03/21 13:01:15;;;;;;;6.10;4.07;;;29.60;18.10;;;;;;6106846;28;20076;-69
2022/03/21 13:11:02;;;;;;;9.32;4.82;;;28.30;18.10;;;;;;6122189;28;20039;-68
2022/03/21 13:14:14;;;;;;;12.52;4.63;;;27.80;18.80;;;;;;6120921;28;20043;-69
2022/03/21 13:17:15;;;;;;;5.65;3.97;;;28.30;18.50;;;;;;6120884;28;20079;-68
2022/03/21 13:20:23;;;;;;;10.35;4.28;;;28.60;18.30;;;;;;6121870;28;20043;-68
2022/03/21 13:23:24;;;;;;;;;;;28.60;18.00;;;;;;6124141;28;20464;-68
2022/03/21 13:26:27;;;;;;;12.50;4.97;;;28.70;18.00;;;;;;6124739;28;19969;-68
2022/03/21 13:29:27;;;;;;;8.52;4.88;;;28.60;18.00;;;;;;6123702;28;20032;-68
2022/03/21 13:32:42;;;;;;;9.27;4.63;;;28.60;18.10;;;;;;6124253;28;20036;-68
2022/03/21 13:35:51;;;;;;;9.57;4.53;;;28.70;17.70;;;;;;6121564;28;20357;-68
2022/03/21 13:39:16;;;;;;;8.65;4.68;;;28.60;17.70;;;;;;6123212;28;20063;-68
2022/03/21 13:42:22;;;;;;;8.50;4.70;;;27.80;18.20;;;;;;6120664;28;20425;-68
2022/03/21 13:45:23;;;;;;;11.70;4.32;;;27.00;18.80;;;;;;6123146;28;20035;-67
2022/03/21 13:48:38;;;;;;;7.85;4.50;;;26.30;19.30;;;;;;6116537;28;20058;-68
2022/03/21 13:51:43;;;;;;;12.50;4.80;;;25.60;19.70;;;;;;6123082;28;20036;-68
2022/03/21 13:54:48;;;;;;;9.82;4.28;;;25.10;20.20;;;;;;6121498;28;20035;-67
2022/03/21 13:57:57;;;;;;;8.77;4.30;;;24.70;20.70;;;;;;6122600;28;20365;-68
2022/03/21 14:00:58;;;;;;;9.73;4.80;;;24.30;21.10;;;;;;6122266;28;20035;-68
2022/03/21 14:04:00;;;;;;;15.40;5.68;;;24.00;21.50;;;;;;6122902;28;21827;-68
2022/03/21 14:07:05;;;;;;;11.52;4.47;;;23.80;21.80;;;;;;6107027;28;20040;-68
2022/03/21 14:10:24;;;;;;;10.23;4.80;;;23.50;22.10;;;;;;6123043;28;20213;-68
2022/03/21 14:13:27;;;;;;;9.32;4.97;;;23.20;22.40;;;;;;6123369;28;20050;-68
2022/03/21 14:16:28;;;;;;;10.57;4.72;;;22.90;22.70;;;;;;6124315;28;20036;-68
2022/03/21 14:19:35;;;;;;;12.00;5.05;;;22.80;23.00;;;;;;6122252;28;20032;-70
2022/03/21 14:22:41;;;;;;;9.25;4.50;;;22.60;23.20;;;;;;6124023;28;20036;-68
2022/03/21 14:29:07;;;;;;;9.55;4.93;;;22.20;23.60;;;;;;6122598;28;20410;-69
2022/03/21 14:32:08;;;;;;;10.40;5.13;;;22.10;23.80;;;;;;6116267;28;20035;-68
2022/03/21 14:35:09;;;;;;;10.98;5.47;;;22.10;24.00;;;;;;6123765;28;20036;-67
2022/03/21 14:38:10;;;;;;;8.95;5.13;;;22.00;24.10;;;;;;6123415;28;20111;-68
2022/03/21 14:41:16;;;;;;;12.30;5.60;;;21.90;24.30;;;;;;6122210;28;20068;-69
2022/03/21 14:44:18;;;;;;;12.00;4.70;;;21.80;24.40;;;;;;6123621;28;20027;-69
2022/03/21 14:47:19;;;;;;;13.02;5.38;;;21.70;24.40;;;;;;6122084;28;20043;-68
2022/03/21 14:50:20;;;;;;;8.85;5.30;;;21.70;24.60;;;;;;6122727;28;20067;-70
2022/03/21 14:53:22;;;;;;;10.38;5.35;;;21.60;24.70;;;;;;6122592;28;20050;-70
2022/03/21 14:56:23;;;;;;;11.55;5.45;;;21.50;25.30;;;;;;6127659;28;20049;-70
2022/03/21 14:59:24;;;;;;;11.88;4.80;;;21.50;25.00;;;;;;6119865;28;20373;-67
2022/03/21 15:02:25;;;;;;;13.85;5.53;;;21.40;25.10;;;;;;6126028;28;20087;-67
2022/03/21 15:05:29;;;;;;;10.77;5.03;;;21.50;25.20;;;;;;6127975;28;20046;-68
2022/03/21 15:08:30;;;;;;;11.43;5.28;;;21.40;25.30;;;;;;6127914;28;20059;-68
2022/03/21 15:11:30;;;;;;;8.95;5.40;;;21.50;25.40;;;;;;6127043;28;20040;-68
2022/03/21 15:14:32;;;;;;;23.75;6.03;;;21.50;25.40;;;;;;6126867;28;20050;-67
2022/03/21 15:17:33;;;;;;;11.02;5.60;;;21.40;25.50;;;;;;6123127;28;20028;-69
2022/03/21 15:20:35;;;;;;;11.43;5.50;;;21.40;25.60;;;;;;6127297;28;20429;-68
2022/03/21 15:23:37;;;;;;;10.57;5.22;;;21.30;25.70;;;;;;6126947;28;20043;-68
2022/03/21 15:26:38;;;;;;;16.08;5.72;;;21.20;25.80;;;;;;6126008;28;20040;-67
2022/03/21 15:29:39;;;;;;;9.30;5.32;;;21.20;26.00;;;;;;6125609;28;20039;-68
2022/03/21 15:32:41;;;;;;;12.45;5.00;;;21.20;26.10;;;;;;6125898;28;20395;-68
2022/03/21 15:35:42;;;;;;;13.75;5.40;;;21.20;26.10;;;;;;6126946;28;20047;-68
2022/03/21 15:42:03;;;;;;;12.90;5.78;;;21.20;26.30;;;;;;6124372;28;20123;-68
2022/03/21 15:45:05;;;;;;;10.18;5.32;;;21.20;26.80;;;;;;6125721;28;20171;-68
2022/03/21 15:48:06;;;;;;;14.07;5.55;;;21.00;26.20;;;;;;6125103;28;20047;-67
2022/03/21 15:51:07;;;;;;;14.77;6.40;;;21.00;26.40;;;;;;6125331;28;20118;-68
2022/03/21 15:54:08;;;;;;;18.55;5.65;;;20.90;26.50;;;;;;6109814;28;20039;-69
2022/03/21 15:57:09;;;;;;;17.50;6.55;;;20.90;26.60;;;;;;6125759;28;20067;-67
2022/03/21 16:00:15;;;;;;;11.27;5.80;;;20.80;26.70;;;;;;6123769;28;20044;-67
2022/03/21 16:03:16;;;;;;;13.30;6.70;;;20.80;26.90;;;;;;6126078;28;20434;-68
2022/03/21 16:06:17;;;;;;;16.15;6.95;;;20.70;27.00;;;;;;6125887;28;20075;-68
2022/03/21 16:09:18;;;;;;;9.70;5.45;;;20.60;27.00;;;;;;6122409;28;20064;-67
2022/03/21 16:12:19;;;;;;;14.45;6.57;;;20.60;27.20;;;;;;6125952;28;20480;-68
2022/03/21 16:15:19;;;;;;;12.00;5.95;;;20.50;27.30;;;;;;6124615;28;20032;-68
2022/03/21 16:18:22;;;;;;;15.45;6.13;;;20.50;27.40;;;;;;6125337;28;20343;-68